Enter the Airport ICAO Code

Search by Airport or City

Current Weather

LEST | Santiago de Compostela Airport

Santiago de Compostela, Galicia, Spain

Last Update 12 Minutes Ago

Sky with Few Clouds

Temperature of 07 ºC

Light Winds from East

Temperature

07 ºC

Dew Point Temperature

04 ºC

Relative Humidity

81.24 %

Wind Direction

East (070º, Ranging from 030º to 120º)

Wind Velocity

6 km/h (03 kt)

Gusts

None

Visibility

Greater than 10 Kilometers

Sea Level Pressure

1021 hPa (Hectopascals)

Layers of Clouds

5% to 30% of Sky Covered from 671 mts (2200 ft) Above Ground Level.

METAR LEST 022200Z 07003KT 030V120 9999 FEW022 07/04 Q1021 NOSIG

Weather Forecast

LEST | Santiago de Compostela Airport

Santiago de Compostela, Galicia, Spain

Forecast valid for the next 20 Hours

From now on it is expected:

Partly Cloudy Sky

Light to Moderate Winds from NorthEast

In 6 hours it is expected the begining of 14 hours with intermittent periods of:

Light Rain, Mist

In 8 hours it is expected the begining of 12 hours with intermittent periods of:

Drizzle

Maximum Temperature

09 ºC in 20 Hours

Minimum Temperature

05 ºC in 6 Hours

TAF LEST 021700Z 0218/0318 03009KT 9999 SCT030 TX09/0318Z TN05/0304Z TEMPO 0304/0318 3000 -RA BR BKN010 PROB40 TEMPO 0306/0318 3000 RADZ BKN005